sensor_id;sensor_type;location;lat;lon;timestamp;temperature;humidity
1538;DHT22;12022;52.266;10.522;2023-04-25T00:02:12;10.00;99.90
1538;DHT22;12022;52.266;10.522;2023-04-25T00:04:39;10.00;99.90
1538;DHT22;12022;52.266;10.522;2023-04-25T00:07:07;10.00;99.90
1538;DHT22;12022;52.266;10.522;2023-04-25T00:09:34;10.00;99.90
1538;DHT22;12022;52.266;10.522;2023-04-25T00:12:01;10.10;99.90
1538;DHT22;12022;52.266;10.522;2023-04-25T00:14:29;10.00;99.90
1538;DHT22;12022;52.266;10.522;2023-04-25T00:16:56;10.10;99.90
1538;DHT22;12022;52.266;10.522;2023-04-25T00:19:23;10.00;99.90
1538;DHT22;12022;52.266;10.522;2023-04-25T00:21:49;9.90;99.90
1538;DHT22;12022;52.266;10.522;2023-04-25T00:24:16;10.00;99.90
1538;DHT22;12022;52.266;10.522;2023-04-25T00:26:43;10.00;99.90
1538;DHT22;12022;52.266;10.522;2023-04-25T00:29:10;9.90;99.90
1538;DHT22;12022;52.266;10.522;2023-04-25T00:31:37;10.10;99.90
1538;DHT22;12022;52.266;10.522;2023-04-25T00:34:06;10.00;99.90
1538;DHT22;12022;52.266;10.522;2023-04-25T00:36:34;9.80;99.90
1538;DHT22;12022;52.266;10.522;2023-04-25T00:39:01;10.00;99.90
1538;DHT22;12022;52.266;10.522;2023-04-25T00:41:29;9.80;99.90
1538;DHT22;12022;52.266;10.522;2023-04-25T00:43:56;10.10;99.90
1538;DHT22;12022;52.266;10.522;2023-04-25T00:46:24;10.00;99.90
1538;DHT22;12022;52.266;10.522;2023-04-25T00:48:51;9.90;99.90
1538;DHT22;12022;52.266;10.522;2023-04-25T00:51:20;9.80;99.90
1538;DHT22;12022;52.266;10.522;2023-04-25T00:53:49;10.00;99.90
1538;DHT22;12022;52.266;10.522;2023-04-25T00:56:17;9.80;99.90
1538;DHT22;12022;52.266;10.522;2023-04-25T00:58:45;9.70;99.90
1538;DHT22;12022;52.266;10.522;2023-04-25T01:01:12;9.70;99.90
1538;DHT22;12022;52.266;10.522;2023-04-25T01:03:40;9.70;99.90
1538;DHT22;12022;52.266;10.522;2023-04-25T01:06:09;9.80;99.90
1538;DHT22;12022;52.266;10.522;2023-04-25T01:08:38;9.80;99.90
1538;DHT22;12022;52.266;10.522;2023-04-25T01:11:06;9.80;99.90
1538;DHT22;12022;52.266;10.522;2023-04-25T01:13:33;9.80;99.90
1538;DHT22;12022;52.266;10.522;2023-04-25T01:16:01;9.80;99.90
1538;DHT22;12022;52.266;10.522;2023-04-25T01:18:29;9.80;99.90
1538;DHT22;12022;52.266;10.522;2023-04-25T01:21:02;9.70;99.90
1538;DHT22;12022;52.266;10.522;2023-04-25T01:23:32;9.80;99.90
1538;DHT22;12022;52.266;10.522;2023-04-25T01:26:00;9.80;99.90
1538;DHT22;12022;52.266;10.522;2023-04-25T01:28:28;9.80;99.90
1538;DHT22;12022;52.266;10.522;2023-04-25T01:30:56;10.00;99.90
1538;DHT22;12022;52.266;10.522;2023-04-25T01:33:23;9.80;99.90
1538;DHT22;12022;52.266;10.522;2023-04-25T01:35:50;9.80;99.90
1538;DHT22;12022;52.266;10.522;2023-04-25T01:38:17;9.70;99.90
1538;DHT22;12022;52.266;10.522;2023-04-25T01:40:45;9.70;99.90
1538;DHT22;12022;52.266;10.522;2023-04-25T01:43:13;9.80;99.90
1538;DHT22;12022;52.266;10.522;2023-04-25T01:45:41;10.00;99.90
1538;DHT22;12022;52.266;10.522;2023-04-25T01:48:13;9.80;99.90
1538;DHT22;12022;52.266;10.522;2023-04-25T01:50:41;9.80;99.90
1538;DHT22;12022;52.266;10.522;2023-04-25T01:53:09;9.80;99.90
1538;DHT22;12022;52.266;10.522;2023-04-25T01:55:37;9.80;99.90
1538;DHT22;12022;52.266;10.522;2023-04-25T01:58:04;9.70;99.90
1538;DHT22;12022;52.266;10.522;2023-04-25T02:00:36;9.60;99.90
1538;DHT22;12022;52.266;10.522;2023-04-25T02:03:06;9.60;99.90
1538;DHT22;12022;52.266;10.522;2023-04-25T02:05:37;9.60;99.90
1538;DHT22;12022;52.266;10.522;2023-04-25T02:08:06;9.80;99.90
1538;DHT22;12022;52.266;10.522;2023-04-25T02:10:33;9.60;99.90
1538;DHT22;12022;52.266;10.522;2023-04-25T02:13:01;9.60;99.90
1538;DHT22;12022;52.266;10.522;2023-04-25T02:15:28;9.60;99.90
1538;DHT22;12022;52.266;10.522;2023-04-25T02:17:55;9.60;99.90
1538;DHT22;12022;52.266;10.522;2023-04-25T02:20:23;9.60;99.90
1538;DHT22;12022;52.266;10.522;2023-04-25T02:22:51;9.60;99.90
1538;DHT22;12022;52.266;10.522;2023-04-25T02:25:19;9.60;99.90
1538;DHT22;12022;52.266;10.522;2023-04-25T02:27:47;9.70;99.90
1538;DHT22;12022;52.266;10.522;2023-04-25T02:30:14;9.60;99.90
1538;DHT22;12022;52.266;10.522;2023-04-25T02:32:41;9.50;99.90
1538;DHT22;12022;52.266;10.522;2023-04-25T02:35:09;9.60;99.90
1538;DHT22;12022;52.266;10.522;2023-04-25T02:37:38;9.60;99.90
1538;DHT22;12022;52.266;10.522;2023-04-25T02:40:05;9.60;99.90
1538;DHT22;12022;52.266;10.522;2023-04-25T02:42:33;9.60;99.90
1538;DHT22;12022;52.266;10.522;2023-04-25T02:45:00;9.60;99.90
1538;DHT22;12022;52.266;10.522;2023-04-25T02:47:27;9.50;99.90
1538;DHT22;12022;52.266;10.522;2023-04-25T02:49:54;9.70;99.90
1538;DHT22;12022;52.266;10.522;2023-04-25T02:52:21;9.50;99.90
1538;DHT22;12022;52.266;10.522;2023-04-25T02:54:48;9.50;99.90
1538;DHT22;12022;52.266;10.522;2023-04-25T02:57:14;9.50;99.90
1538;DHT22;12022;52.266;10.522;2023-04-25T02:59:41;9.50;99.90
1538;DHT22;12022;52.266;10.522;2023-04-25T03:02:09;9.30;99.90
1538;DHT22;12022;52.266;10.522;2023-04-25T03:04:36;9.50;99.90
1538;DHT22;12022;52.266;10.522;2023-04-25T03:07:04;9.40;99.90
1538;DHT22;12022;52.266;10.522;2023-04-25T03:09:31;9.40;99.90
1538;DHT22;12022;52.266;10.522;2023-04-25T03:11:58;9.40;99.90
1538;DHT22;12022;52.266;10.522;2023-04-25T03:14:24;9.40;99.90
1538;DHT22;12022;52.266;10.522;2023-04-25T03:16:51;9.50;99.90
1538;DHT22;12022;52.266;10.522;2023-04-25T03:19:18;9.50;99.90
1538;DHT22;12022;52.266;10.522;2023-04-25T03:21:47;9.40;99.90
1538;DHT22;12022;52.266;10.522;2023-04-25T03:24:14;9.40;99.90
1538;DHT22;12022;52.266;10.522;2023-04-25T03:26:40;9.50;99.90
1538;DHT22;12022;52.266;10.522;2023-04-25T03:29:08;9.30;99.90
1538;DHT22;12022;52.266;10.522;2023-04-25T03:31:35;9.30;99.90
1538;DHT22;12022;52.266;10.522;2023-04-25T03:34:02;9.20;99.90
1538;DHT22;12022;52.266;10.522;2023-04-25T03:36:30;9.20;99.90
1538;DHT22;12022;52.266;10.522;2023-04-25T03:38:57;9.40;99.90
1538;DHT22;12022;52.266;10.522;2023-04-25T03:41:24;9.10;99.90
1538;DHT22;12022;52.266;10.522;2023-04-25T03:43:51;9.10;99.90
1538;DHT22;12022;52.266;10.522;2023-04-25T03:46:18;9.20;99.90
1538;DHT22;12022;52.266;10.522;2023-04-25T03:48:45;8.90;99.90
1538;DHT22;12022;52.266;10.522;2023-04-25T03:51:12;9.00;99.90
1538;DHT22;12022;52.266;10.522;2023-04-25T03:53:39;8.90;99.90
1538;DHT22;12022;52.266;10.522;2023-04-25T03:56:06;8.90;99.90
1538;DHT22;12022;52.266;10.522;2023-04-25T03:58:33;8.80;99.90
1538;DHT22;12022;52.266;10.522;2023-04-25T04:01:00;8.70;99.90
1538;DHT22;12022;52.266;10.522;2023-04-25T04:03:29;8.70;99.90
1538;DHT22;12022;52.266;10.522;2023-04-25T04:05:56;8.70;99.90
1538;DHT22;12022;52.266;10.522;2023-04-25T04:08:23;8.60;99.90
1538;DHT22;12022;52.266;10.522;2023-04-25T04:10:50;8.60;99.90
1538;DHT22;12022;52.266;10.522;2023-04-25T04:13:17;8.60;99.90
1538;DHT22;12022;52.266;10.522;2023-04-25T04:15:44;8.50;99.90
1538;DHT22;12022;52.266;10.522;2023-04-25T04:18:11;8.50;99.90
1538;DHT22;12022;52.266;10.522;2023-04-25T04:20:38;8.40;99.90
1538;DHT22;12022;52.266;10.522;2023-04-25T04:23:05;8.50;99.90
1538;DHT22;12022;52.266;10.522;2023-04-25T04:25:32;8.60;99.90
1538;DHT22;12022;52.266;10.522;2023-04-25T04:27:59;8.50;99.90
1538;DHT22;12022;52.266;10.522;2023-04-25T04:30:27;8.40;99.90
1538;DHT22;12022;52.266;10.522;2023-04-25T04:32:57;8.60;99.90
1538;DHT22;12022;52.266;10.522;2023-04-25T04:35:27;8.50;99.90
1538;DHT22;12022;52.266;10.522;2023-04-25T04:37:54;8.60;99.90
1538;DHT22;12022;52.266;10.522;2023-04-25T04:40:22;8.40;99.90
1538;DHT22;12022;52.266;10.522;2023-04-25T04:42:48;8.60;99.90
1538;DHT22;12022;52.266;10.522;2023-04-25T04:45:16;8.40;99.90
1538;DHT22;12022;52.266;10.522;2023-04-25T04:47:44;8.70;99.90
1538;DHT22;12022;52.266;10.522;2023-04-25T04:50:12;8.40;99.90
1538;DHT22;12022;52.266;10.522;2023-04-25T04:52:39;8.40;99.90
1538;DHT22;12022;52.266;10.522;2023-04-25T04:55:06;8.50;99.90
1538;DHT22;12022;52.266;10.522;2023-04-25T04:57:34;8.50;99.90
1538;DHT22;12022;52.266;10.522;2023-04-25T05:00:02;8.80;99.90
1538;DHT22;12022;52.266;10.522;2023-04-25T05:02:31;8.50;99.90
1538;DHT22;12022;52.266;10.522;2023-04-25T05:04:58;8.60;99.90
1538;DHT22;12022;52.266;10.522;2023-04-25T05:07:25;8.70;99.90
1538;DHT22;12022;52.266;10.522;2023-04-25T05:09:52;8.90;99.90
1538;DHT22;12022;52.266;10.522;2023-04-25T05:12:19;8.80;99.90
1538;DHT22;12022;52.266;10.522;2023-04-25T05:14:46;8.80;99.90
1538;DHT22;12022;52.266;10.522;2023-04-25T05:17:13;8.90;99.90
1538;DHT22;12022;52.266;10.522;2023-04-25T05:19:40;9.00;99.90
1538;DHT22;12022;52.266;10.522;2023-04-25T05:22:07;9.20;99.90
1538;DHT22;12022;52.266;10.522;2023-04-25T05:24:34;9.10;99.90
1538;DHT22;12022;52.266;10.522;2023-04-25T05:27:01;9.20;99.90
1538;DHT22;12022;52.266;10.522;2023-04-25T05:29:29;9.40;99.90
1538;DHT22;12022;52.266;10.522;2023-04-25T05:31:56;9.40;99.90
1538;DHT22;12022;52.266;10.522;2023-04-25T05:34:23;9.50;99.90
1538;DHT22;12022;52.266;10.522;2023-04-25T05:36:50;9.60;99.90
1538;DHT22;12022;52.266;10.522;2023-04-25T05:39:17;9.60;99.90
1538;DHT22;12022;52.266;10.522;2023-04-25T05:41:44;9.90;99.90
1538;DHT22;12022;52.266;10.522;2023-04-25T05:44:11;10.40;99.90
1538;DHT22;12022;52.266;10.522;2023-04-25T05:46:38;11.30;99.90
1538;DHT22;12022;52.266;10.522;2023-04-25T05:49:05;12.30;99.90
1538;DHT22;12022;52.266;10.522;2023-04-25T05:51:32;12.50;99.90
1538;DHT22;12022;52.266;10.522;2023-04-25T05:53:59;12.50;99.90
1538;DHT22;12022;52.266;10.522;2023-04-25T05:56:26;12.50;99.90
1538;DHT22;12022;52.266;10.522;2023-04-25T05:58:53;12.50;99.90
1538;DHT22;12022;52.266;10.522;2023-04-25T06:01:20;12.40;99.90
1538;DHT22;12022;52.266;10.522;2023-04-25T06:03:50;12.60;99.90
1538;DHT22;12022;52.266;10.522;2023-04-25T06:06:23;12.80;99.90
1538;DHT22;12022;52.266;10.522;2023-04-25T06:08:52;13.10;99.90
1538;DHT22;12022;52.266;10.522;2023-04-25T06:11:19;13.60;99.90
1538;DHT22;12022;52.266;10.522;2023-04-25T06:13:47;13.20;99.90
1538;DHT22;12022;52.266;10.522;2023-04-25T06:16:14;13.00;99.90
1538;DHT22;12022;52.266;10.522;2023-04-25T06:18:42;12.90;99.90
1538;DHT22;12022;52.266;10.522;2023-04-25T06:21:08;12.90;99.90
1538;DHT22;12022;52.266;10.522;2023-04-25T06:23:35;13.10;99.90
1538;DHT22;12022;52.266;10.522;2023-04-25T06:26:02;13.00;99.90
1538;DHT22;12022;52.266;10.522;2023-04-25T06:28:30;13.80;99.90
1538;DHT22;12022;52.266;10.522;2023-04-25T06:30:56;14.90;99.90
1538;DHT22;12022;52.266;10.522;2023-04-25T06:33:23;15.90;99.90
1538;DHT22;12022;52.266;10.522;2023-04-25T06:35:51;17.40;99.90
1538;DHT22;12022;52.266;10.522;2023-04-25T06:38:18;18.90;99.90
1538;DHT22;12022;52.266;10.522;2023-04-25T06:40:45;19.20;98.50
1538;DHT22;12022;52.266;10.522;2023-04-25T06:43:12;18.80;99.10
1538;DHT22;12022;52.266;10.522;2023-04-25T06:45:39;18.30;99.80
1538;DHT22;12022;52.266;10.522;2023-04-25T06:48:06;17.50;99.90
1538;DHT22;12022;52.266;10.522;2023-04-25T06:50:33;16.90;99.90
1538;DHT22;12022;52.266;10.522;2023-04-25T06:53:00;16.20;99.90
1538;DHT22;12022;52.266;10.522;2023-04-25T06:55:28;15.80;99.90
1538;DHT22;12022;52.266;10.522;2023-04-25T06:57:55;15.80;99.90
1538;DHT22;12022;52.266;10.522;2023-04-25T07:00:22;16.30;99.90
1538;DHT22;12022;52.266;10.522;2023-04-25T07:02:48;17.00;99.90
1538;DHT22;12022;52.266;10.522;2023-04-25T07:05:17;17.40;99.90
1538;DHT22;12022;52.266;10.522;2023-04-25T07:07:45;17.70;99.70
1538;DHT22;12022;52.266;10.522;2023-04-25T07:10:12;17.50;98.50
1538;DHT22;12022;52.266;10.522;2023-04-25T07:12:39;18.30;99.10
1538;DHT22;12022;52.266;10.522;2023-04-25T07:15:06;19.00;96.20
1538;DHT22;12022;52.266;10.522;2023-04-25T07:17:36;19.90;96.50
1538;DHT22;12022;52.266;10.522;2023-04-25T07:20:04;20.00;94.10
1538;DHT22;12022;52.266;10.522;2023-04-25T07:22:32;19.90;92.70
1538;DHT22;12022;52.266;10.522;2023-04-25T07:25:00;20.50;92.70
1538;DHT22;12022;52.266;10.522;2023-04-25T07:27:27;21.20;91.50
1538;DHT22;12022;52.266;10.522;2023-04-25T07:29:54;22.10;91.30
1538;DHT22;12022;52.266;10.522;2023-04-25T07:32:21;23.00;91.30
1538;DHT22;12022;52.266;10.522;2023-04-25T07:34:48;24.10;87.70
1538;DHT22;12022;52.266;10.522;2023-04-25T07:37:15;24.20;86.50
1538;DHT22;12022;52.266;10.522;2023-04-25T07:39:45;23.90;83.50
1538;DHT22;12022;52.266;10.522;2023-04-25T07:42:15;22.90;80.90
1538;DHT22;12022;52.266;10.522;2023-04-25T07:44:42;21.80;80.00
1538;DHT22;12022;52.266;10.522;2023-04-25T07:47:10;20.80;82.00
1538;DHT22;12022;52.266;10.522;2023-04-25T07:49:37;20.10;78.40
1538;DHT22;12022;52.266;10.522;2023-04-25T07:52:05;19.20;77.40
1538;DHT22;12022;52.266;10.522;2023-04-25T07:54:35;18.40;81.70
1538;DHT22;12022;52.266;10.522;2023-04-25T07:57:02;18.20;88.20
1538;DHT22;12022;52.266;10.522;2023-04-25T07:59:29;18.10;87.10
1538;DHT22;12022;52.266;10.522;2023-04-25T08:01:56;18.00;87.90
1538;DHT22;12022;52.266;10.522;2023-04-25T08:04:24;17.70;86.90
1538;DHT22;12022;52.266;10.522;2023-04-25T08:06:53;17.40;89.90
1538;DHT22;12022;52.266;10.522;2023-04-25T08:09:20;17.00;89.70
1538;DHT22;12022;52.266;10.522;2023-04-25T08:11:48;16.60;88.10
1538;DHT22;12022;52.266;10.522;2023-04-25T08:14:15;16.20;89.30
1538;DHT22;12022;52.266;10.522;2023-04-25T08:16:42;15.90;91.00
1538;DHT22;12022;52.266;10.522;2023-04-25T08:19:09;15.80;91.00
1538;DHT22;12022;52.266;10.522;2023-04-25T08:21:37;15.90;92.20
1538;DHT22;12022;52.266;10.522;2023-04-25T08:24:04;16.30;92.20
1538;DHT22;12022;52.266;10.522;2023-04-25T08:26:31;16.50;92.50
1538;DHT22;12022;52.266;10.522;2023-04-25T08:28:59;16.90;92.50
1538;DHT22;12022;52.266;10.522;2023-04-25T08:31:27;17.00;91.50
1538;DHT22;12022;52.266;10.522;2023-04-25T08:33:54;16.90;92.10
1538;DHT22;12022;52.266;10.522;2023-04-25T08:36:21;16.70;91.50
1538;DHT22;12022;52.266;10.522;2023-04-25T08:39:05;16.40;92.70
1538;DHT22;12022;52.266;10.522;2023-04-25T08:41:32;15.90;92.90
1538;DHT22;12022;52.266;10.522;2023-04-25T08:43:59;15.70;93.30
1538;DHT22;12022;52.266;10.522;2023-04-25T08:46:28;15.00;93.10
1538;DHT22;12022;52.266;10.522;2023-04-25T08:49:02;14.70;94.80
1538;DHT22;12022;52.266;10.522;2023-04-25T08:51:54;14.40;96.10
1538;DHT22;12022;52.266;10.522;2023-04-25T08:54:33;14.10;96.70
1538;DHT22;12022;52.266;10.522;2023-04-25T08:57:23;14.00;97.00
1538;DHT22;12022;52.266;10.522;2023-04-25T09:00:00;13.80;96.90
1538;DHT22;12022;52.266;10.522;2023-04-25T09:02:46;14.10;96.90
1538;DHT22;12022;52.266;10.522;2023-04-25T09:05:20;14.50;97.90
1538;DHT22;12022;52.266;10.522;2023-04-25T09:07:47;15.00;98.60
1538;DHT22;12022;52.266;10.522;2023-04-25T09:10:19;15.20;97.30
1538;DHT22;12022;52.266;10.522;2023-04-25T09:15:54;14.90;95.90
1538;DHT22;12022;52.266;10.522;2023-04-25T09:18:32;14.80;96.30
1538;DHT22;12022;52.266;10.522;2023-04-25T09:21:10;14.70;97.90
1538;DHT22;12022;52.266;10.522;2023-04-25T09:23:50;14.60;97.10
1538;DHT22;12022;52.266;10.522;2023-04-25T09:26:23;14.60;96.20
1538;DHT22;12022;52.266;10.522;2023-04-25T09:29:07;14.60;94.90
1538;DHT22;12022;52.266;10.522;2023-04-25T09:31:34;14.70;95.90
1538;DHT22;12022;52.266;10.522;2023-04-25T09:34:02;14.40;95.70
1538;DHT22;12022;52.266;10.522;2023-04-25T09:36:42;14.30;95.10
1538;DHT22;12022;52.266;10.522;2023-04-25T09:39:18;14.00;96.40
1538;DHT22;12022;52.266;10.522;2023-04-25T09:41:53;14.00;96.10
1538;DHT22;12022;52.266;10.522;2023-04-25T09:44:26;14.00;95.50
1538;DHT22;12022;52.266;10.522;2023-04-25T09:46:54;14.00;95.60
1538;DHT22;12022;52.266;10.522;2023-04-25T09:49:21;13.90;95.10
1538;DHT22;12022;52.266;10.522;2023-04-25T09:51:57;13.80;96.10
1538;DHT22;12022;52.266;10.522;2023-04-25T09:54:25;13.80;96.20
1538;DHT22;12022;52.266;10.522;2023-04-25T09:56:56;13.70;96.00
1538;DHT22;12022;52.266;10.522;2023-04-25T09:59:27;13.60;95.70
1538;DHT22;12022;52.266;10.522;2023-04-25T10:02:02;13.60;95.40
1538;DHT22;12022;52.266;10.522;2023-04-25T10:04:37;13.30;96.30
1538;DHT22;12022;52.266;10.522;2023-04-25T10:07:06;13.20;96.20
1538;DHT22;12022;52.266;10.522;2023-04-25T10:09:39;13.20;96.60
1538;DHT22;12022;52.266;10.522;2023-04-25T10:12:08;13.40;96.40
1538;DHT22;12022;52.266;10.522;2023-04-25T10:14:35;13.50;95.70
1538;DHT22;12022;52.266;10.522;2023-04-25T10:17:02;13.80;95.90
1538;DHT22;12022;52.266;10.522;2023-04-25T10:19:31;13.90;95.60
1538;DHT22;12022;52.266;10.522;2023-04-25T10:22:18;14.20;97.50
1538;DHT22;12022;52.266;10.522;2023-04-25T10:24:57;14.60;96.20
1538;DHT22;12022;52.266;10.522;2023-04-25T10:27:27;14.80;95.40
1538;DHT22;12022;52.266;10.522;2023-04-25T10:30:05;14.80;94.50
1538;DHT22;12022;52.266;10.522;2023-04-25T10:32:35;14.70;95.20
1538;DHT22;12022;52.266;10.522;2023-04-25T10:35:24;14.50;94.50
1538;DHT22;12022;52.266;10.522;2023-04-25T10:38:13;14.50;94.20
1538;DHT22;12022;52.266;10.522;2023-04-25T10:40:40;14.30;95.50
1538;DHT22;12022;52.266;10.522;2023-04-25T10:46:00;14.20;95.50
1538;DHT22;12022;52.266;10.522;2023-04-25T10:48:31;14.30;95.80
1538;DHT22;12022;52.266;10.522;2023-04-25T10:53:48;14.20;93.10
1538;DHT22;12022;52.266;10.522;2023-04-25T10:56:26;14.10;92.90
1538;DHT22;12022;52.266;10.522;2023-04-25T10:59:14;14.00;92.30
1538;DHT22;12022;52.266;10.522;2023-04-25T11:01:44;13.90;93.30
1538;DHT22;12022;52.266;10.522;2023-04-25T11:04:24;13.90;92.90
1538;DHT22;12022;52.266;10.522;2023-04-25T11:07:53;14.20;94.60
1538;DHT22;12022;52.266;10.522;2023-04-25T11:10:35;14.60;93.60
1538;DHT22;12022;52.266;10.522;2023-04-25T11:13:02;14.60;93.50
1538;DHT22;12022;52.266;10.522;2023-04-25T11:15:29;14.70;94.50
1538;DHT22;12022;52.266;10.522;2023-04-25T11:17:57;14.70;93.20
1538;DHT22;12022;52.266;10.522;2023-04-25T11:20:26;14.70;94.00
1538;DHT22;12022;52.266;10.522;2023-04-25T11:23:01;14.90;93.70
1538;DHT22;12022;52.266;10.522;2023-04-25T11:25:30;15.00;92.90
1538;DHT22;12022;52.266;10.522;2023-04-25T11:28:02;15.20;94.00
1538;DHT22;12022;52.266;10.522;2023-04-25T11:30:47;15.20;92.10
1538;DHT22;12022;52.266;10.522;2023-04-25T11:33:22;14.70;91.40
1538;DHT22;12022;52.266;10.522;2023-04-25T11:35:50;14.40;92.30
1538;DHT22;12022;52.266;10.522;2023-04-25T11:38:18;14.00;92.30
1538;DHT22;12022;52.266;10.522;2023-04-25T11:40:51;13.60;93.10
1538;DHT22;12022;52.266;10.522;2023-04-25T11:43:22;13.30;94.30
1538;DHT22;12022;52.266;10.522;2023-04-25T11:45:50;13.10;94.90
1538;DHT22;12022;52.266;10.522;2023-04-25T11:48:20;12.90;94.90
1538;DHT22;12022;52.266;10.522;2023-04-25T11:50:53;12.80;95.80
1538;DHT22;12022;52.266;10.522;2023-04-25T11:53:20;12.90;96.90
1538;DHT22;12022;52.266;10.522;2023-04-25T11:55:48;13.00;97.50
1538;DHT22;12022;52.266;10.522;2023-04-25T11:58:17;13.20;97.00
1538;DHT22;12022;52.266;10.522;2023-04-25T12:00:46;13.40;96.80
1538;DHT22;12022;52.266;10.522;2023-04-25T12:03:17;13.60;98.10
1538;DHT22;12022;52.266;10.522;2023-04-25T12:05:45;14.20;97.90
1538;DHT22;12022;52.266;10.522;2023-04-25T12:08:15;14.50;95.60
1538;DHT22;12022;52.266;10.522;2023-04-25T12:10:44;14.80;96.30
1538;DHT22;12022;52.266;10.522;2023-04-25T12:15:49;15.20;93.70
1538;DHT22;12022;52.266;10.522;2023-04-25T12:18:20;15.10;93.00
1538;DHT22;12022;52.266;10.522;2023-04-25T12:20:48;15.10;94.70
1538;DHT22;12022;52.266;10.522;2023-04-25T12:23:15;14.80;93.80
1538;DHT22;12022;52.266;10.522;2023-04-25T12:25:43;14.70;93.50
1538;DHT22;12022;52.266;10.522;2023-04-25T12:28:15;14.80;94.90
1538;DHT22;12022;52.266;10.522;2023-04-25T12:31:01;14.80;94.90
1538;DHT22;12022;52.266;10.522;2023-04-25T12:33:38;14.90;94.60
1538;DHT22;12022;52.266;10.522;2023-04-25T12:36:06;15.00;95.00
1538;DHT22;12022;52.266;10.522;2023-04-25T12:38:42;15.20;93.00
1538;DHT22;12022;52.266;10.522;2023-04-25T12:41:09;15.30;93.50
1538;DHT22;12022;52.266;10.522;2023-04-25T12:43:36;15.40;91.80
1538;DHT22;12022;52.266;10.522;2023-04-25T12:46:03;15.50;92.30
1538;DHT22;12022;52.266;10.522;2023-04-25T12:48:30;15.60;92.30
1538;DHT22;12022;52.266;10.522;2023-04-25T12:50:57;15.60;91.80
1538;DHT22;12022;52.266;10.522;2023-04-25T12:53:25;15.40;92.60
1538;DHT22;12022;52.266;10.522;2023-04-25T12:55:52;15.20;92.80
1538;DHT22;12022;52.266;10.522;2023-04-25T12:58:19;15.00;92.60
1538;DHT22;12022;52.266;10.522;2023-04-25T13:00:46;14.80;93.40
1538;DHT22;12022;52.266;10.522;2023-04-25T13:03:14;14.60;93.10
1538;DHT22;12022;52.266;10.522;2023-04-25T13:05:42;14.30;93.00
1538;DHT22;12022;52.266;10.522;2023-04-25T13:08:09;14.20;94.70
1538;DHT22;12022;52.266;10.522;2023-04-25T13:10:36;14.30;94.00
1538;DHT22;12022;52.266;10.522;2023-04-25T13:13:08;14.20;95.30
1538;DHT22;12022;52.266;10.522;2023-04-25T13:15:35;14.00;94.30
1538;DHT22;12022;52.266;10.522;2023-04-25T13:18:05;13.70;95.70
1538;DHT22;12022;52.266;10.522;2023-04-25T13:20:32;13.60;96.80
1538;DHT22;12022;52.266;10.522;2023-04-25T13:22:59;13.40;94.70
1538;DHT22;12022;52.266;10.522;2023-04-25T13:25:28;13.20;95.10
1538;DHT22;12022;52.266;10.522;2023-04-25T13:28:02;13.10;97.00
1538;DHT22;12022;52.266;10.522;2023-04-25T13:30:29;13.10;96.50
1538;DHT22;12022;52.266;10.522;2023-04-25T13:32:57;13.30;97.20
1538;DHT22;12022;52.266;10.522;2023-04-25T13:35:30;13.50;96.40
1538;DHT22;12022;52.266;10.522;2023-04-25T13:37:57;13.80;96.30
1538;DHT22;12022;52.266;10.522;2023-04-25T13:40:26;14.00;96.50
1538;DHT22;12022;52.266;10.522;2023-04-25T13:42:56;14.20;97.20
1538;DHT22;12022;52.266;10.522;2023-04-25T13:45:23;14.40;96.50
1538;DHT22;12022;52.266;10.522;2023-04-25T13:47:50;14.50;95.20
1538;DHT22;12022;52.266;10.522;2023-04-25T13:50:17;14.60;94.90
1538;DHT22;12022;52.266;10.522;2023-04-25T13:52:44;14.60;94.80
1538;DHT22;12022;52.266;10.522;2023-04-25T13:55:11;14.80;96.10
1538;DHT22;12022;52.266;10.522;2023-04-25T13:57:38;14.70;96.30
1538;DHT22;12022;52.266;10.522;2023-04-25T14:00:08;14.70;93.80
1538;DHT22;12022;52.266;10.522;2023-04-25T14:02:38;14.70;93.00
1538;DHT22;12022;52.266;10.522;2023-04-25T14:05:07;14.70;93.10
1538;DHT22;12022;52.266;10.522;2023-04-25T14:07:35;14.60;91.20
1538;DHT22;12022;52.266;10.522;2023-04-25T14:10:03;14.50;90.90
1538;DHT22;12022;52.266;10.522;2023-04-25T14:12:32;14.20;91.30
1538;DHT22;12022;52.266;10.522;2023-04-25T14:14:59;14.00;90.10
1538;DHT22;12022;52.266;10.522;2023-04-25T14:17:26;13.70;92.40
1538;DHT22;12022;52.266;10.522;2023-04-25T14:19:53;13.60;91.10
1538;DHT22;12022;52.266;10.522;2023-04-25T14:22:21;13.60;92.40
1538;DHT22;12022;52.266;10.522;2023-04-25T14:24:49;13.80;93.30
1538;DHT22;12022;52.266;10.522;2023-04-25T14:27:16;13.70;93.80
1538;DHT22;12022;52.266;10.522;2023-04-25T14:29:42;13.70;93.50
1538;DHT22;12022;52.266;10.522;2023-04-25T14:32:09;13.70;93.70
1538;DHT22;12022;52.266;10.522;2023-04-25T14:34:36;13.60;93.40
1538;DHT22;12022;52.266;10.522;2023-04-25T14:37:03;13.50;93.20
1538;DHT22;12022;52.266;10.522;2023-04-25T14:39:30;13.10;94.90
1538;DHT22;12022;52.266;10.522;2023-04-25T14:41:57;13.00;94.70
1538;DHT22;12022;52.266;10.522;2023-04-25T14:44:24;12.80;95.00
1538;DHT22;12022;52.266;10.522;2023-04-25T14:46:51;12.60;95.90
1538;DHT22;12022;52.266;10.522;2023-04-25T14:49:21;12.60;96.80
1538;DHT22;12022;52.266;10.522;2023-04-25T14:51:50;12.60;97.70
1538;DHT22;12022;52.266;10.522;2023-04-25T14:54:18;12.50;96.70
1538;DHT22;12022;52.266;10.522;2023-04-25T14:56:45;12.70;95.90
1538;DHT22;12022;52.266;10.522;2023-04-25T14:59:12;12.60;97.60
1538;DHT22;12022;52.266;10.522;2023-04-25T15:01:38;12.60;96.50
1538;DHT22;12022;52.266;10.522;2023-04-25T15:04:06;12.30;97.80
1538;DHT22;12022;52.266;10.522;2023-04-25T15:06:33;12.80;96.40
1538;DHT22;12022;52.266;10.522;2023-04-25T15:09:00;12.80;97.00
1538;DHT22;12022;52.266;10.522;2023-04-25T15:11:27;12.70;97.10
1538;DHT22;12022;52.266;10.522;2023-04-25T15:13:54;12.60;98.10
1538;DHT22;12022;52.266;10.522;2023-04-25T15:16:21;12.50;98.20
1538;DHT22;12022;52.266;10.522;2023-04-25T15:18:48;12.50;99.30
1538;DHT22;12022;52.266;10.522;2023-04-25T15:21:15;12.60;99.90
1538;DHT22;12022;52.266;10.522;2023-04-25T15:23:42;12.90;99.90
1538;DHT22;12022;52.266;10.522;2023-04-25T15:26:09;12.90;99.90
1538;DHT22;12022;52.266;10.522;2023-04-25T15:28:35;13.00;99.90
1538;DHT22;12022;52.266;10.522;2023-04-25T15:31:03;13.20;99.90
1538;DHT22;12022;52.266;10.522;2023-04-25T15:33:30;13.30;99.50
1538;DHT22;12022;52.266;10.522;2023-04-25T15:35:57;13.30;99.90
1538;DHT22;12022;52.266;10.522;2023-04-25T15:38:27;13.20;99.40
1538;DHT22;12022;52.266;10.522;2023-04-25T15:40:54;13.50;99.60
1538;DHT22;12022;52.266;10.522;2023-04-25T15:43:21;13.20;98.60
1538;DHT22;12022;52.266;10.522;2023-04-25T15:45:48;13.00;98.50
1538;DHT22;12022;52.266;10.522;2023-04-25T15:48:15;12.90;99.70
1538;DHT22;12022;52.266;10.522;2023-04-25T15:50:42;12.80;96.90
1538;DHT22;12022;52.266;10.522;2023-04-25T15:53:11;12.60;98.60
1538;DHT22;12022;52.266;10.522;2023-04-25T15:55:38;12.60;98.50
1538;DHT22;12022;52.266;10.522;2023-04-25T15:58:05;12.60;97.50